sensor_id;sensor_type;location;lat;lon;timestamp;P1;durP1;ratioP1;P2;durP2;ratioP2
70008;SDS011;59542;37.950;-122.338;2023-04-25T00:00:30;13.82;;;4.38;;
70008;SDS011;59542;37.950;-122.338;2023-04-25T00:03:00;11.15;;;3.97;;
70008;SDS011;59542;37.950;-122.338;2023-04-25T00:05:26;13.23;;;4.20;;
70008;SDS011;59542;37.950;-122.338;2023-04-25T00:07:52;10.75;;;3.70;;
70008;SDS011;59542;37.950;-122.338;2023-04-25T00:10:19;14.77;;;3.83;;
70008;SDS011;59542;37.950;-122.338;2023-04-25T00:12:46;12.63;;;4.22;;
70008;SDS011;59542;37.950;-122.338;2023-04-25T00:15:13;14.90;;;4.05;;
70008;SDS011;59542;37.950;-122.338;2023-04-25T00:17:39;17.27;;;3.63;;
70008;SDS011;59542;37.950;-122.338;2023-04-25T00:20:06;11.13;;;5.05;;
70008;SDS011;59542;37.950;-122.338;2023-04-25T00:22:35;12.85;;;4.03;;
70008;SDS011;59542;37.950;-122.338;2023-04-25T00:25:05;13.63;;;4.07;;
70008;SDS011;59542;37.950;-122.338;2023-04-25T00:27:32;11.45;;;3.92;;
70008;SDS011;59542;37.950;-122.338;2023-04-25T00:29:59;10.57;;;3.53;;
70008;SDS011;59542;37.950;-122.338;2023-04-25T00:32:26;11.25;;;3.67;;
70008;SDS011;59542;37.950;-122.338;2023-04-25T00:34:52;11.80;;;4.38;;
70008;SDS011;59542;37.950;-122.338;2023-04-25T00:37:18;19.48;;;3.42;;
70008;SDS011;59542;37.950;-122.338;2023-04-25T00:39:45;12.32;;;4.50;;
70008;SDS011;59542;37.950;-122.338;2023-04-25T00:42:11;9.70;;;3.58;;
70008;SDS011;59542;37.950;-122.338;2023-04-25T00:44:38;12.10;;;4.43;;
70008;SDS011;59542;37.950;-122.338;2023-04-25T00:47:05;15.77;;;4.18;;
70008;SDS011;59542;37.950;-122.338;2023-04-25T00:49:32;18.15;;;4.97;;
70008;SDS011;59542;37.950;-122.338;2023-04-25T00:51:58;14.27;;;4.30;;
70008;SDS011;59542;37.950;-122.338;2023-04-25T00:54:25;11.85;;;4.10;;
70008;SDS011;59542;37.950;-122.338;2023-04-25T00:56:52;15.55;;;4.22;;
70008;SDS011;59542;37.950;-122.338;2023-04-25T00:59:18;14.65;;;4.18;;
70008;SDS011;59542;37.950;-122.338;2023-04-25T01:01:46;13.63;;;3.88;;
70008;SDS011;59542;37.950;-122.338;2023-04-25T01:04:12;17.45;;;3.92;;
70008;SDS011;59542;37.950;-122.338;2023-04-25T01:06:39;7.72;;;3.33;;
70008;SDS011;59542;37.950;-122.338;2023-04-25T01:09:06;11.88;;;3.75;;
70008;SDS011;59542;37.950;-122.338;2023-04-25T01:11:33;11.30;;;3.40;;
70008;SDS011;59542;37.950;-122.338;2023-04-25T01:13:59;14.27;;;3.53;;
70008;SDS011;59542;37.950;-122.338;2023-04-25T01:16:27;13.32;;;3.80;;
70008;SDS011;59542;37.950;-122.338;2023-04-25T01:18:53;10.98;;;3.20;;
70008;SDS011;59542;37.950;-122.338;2023-04-25T01:21:20;11.57;;;3.83;;
70008;SDS011;59542;37.950;-122.338;2023-04-25T01:23:46;8.38;;;3.70;;
70008;SDS011;59542;37.950;-122.338;2023-04-25T01:26:13;12.98;;;3.88;;
70008;SDS011;59542;37.950;-122.338;2023-04-25T01:28:39;7.57;;;3.13;;
70008;SDS011;59542;37.950;-122.338;2023-04-25T01:31:06;9.88;;;3.45;;
70008;SDS011;59542;37.950;-122.338;2023-04-25T01:33:33;8.57;;;3.10;;
70008;SDS011;59542;37.950;-122.338;2023-04-25T01:35:59;8.07;;;3.40;;
70008;SDS011;59542;37.950;-122.338;2023-04-25T01:38:26;15.98;;;4.30;;
70008;SDS011;59542;37.950;-122.338;2023-04-25T01:40:52;13.18;;;4.47;;
70008;SDS011;59542;37.950;-122.338;2023-04-25T01:43:20;12.35;;;3.58;;
70008;SDS011;59542;37.950;-122.338;2023-04-25T01:45:46;12.65;;;3.88;;
70008;SDS011;59542;37.950;-122.338;2023-04-25T01:48:14;14.38;;;4.40;;
70008;SDS011;59542;37.950;-122.338;2023-04-25T01:50:41;15.77;;;4.18;;
70008;SDS011;59542;37.950;-122.338;2023-04-25T01:53:08;14.82;;;4.25;;
70008;SDS011;59542;37.950;-122.338;2023-04-25T01:55:36;14.07;;;4.65;;
70008;SDS011;59542;37.950;-122.338;2023-04-25T01:58:02;14.95;;;4.60;;
70008;SDS011;59542;37.950;-122.338;2023-04-25T02:00:34;13.80;;;4.03;;
70008;SDS011;59542;37.950;-122.338;2023-04-25T02:03:04;17.30;;;4.72;;
70008;SDS011;59542;37.950;-122.338;2023-04-25T02:05:34;17.20;;;4.72;;
70008;SDS011;59542;37.950;-122.338;2023-04-25T02:08:05;13.18;;;4.18;;
70008;SDS011;59542;37.950;-122.338;2023-04-25T02:10:33;12.73;;;4.28;;
70008;SDS011;59542;37.950;-122.338;2023-04-25T02:12:59;24.42;;;4.45;;
70008;SDS011;59542;37.950;-122.338;2023-04-25T02:15:25;16.58;;;4.50;;
70008;SDS011;59542;37.950;-122.338;2023-04-25T02:17:52;16.63;;;4.30;;
70008;SDS011;59542;37.950;-122.338;2023-04-25T02:20:20;13.13;;;4.88;;
70008;SDS011;59542;37.950;-122.338;2023-04-25T02:22:47;16.67;;;4.70;;
70008;SDS011;59542;37.950;-122.338;2023-04-25T02:25:13;23.80;;;5.50;;
70008;SDS011;59542;37.950;-122.338;2023-04-25T02:27:41;16.73;;;4.50;;
70008;SDS011;59542;37.950;-122.338;2023-04-25T02:30:08;22.90;;;4.72;;
70008;SDS011;59542;37.950;-122.338;2023-04-25T02:32:34;17.13;;;4.50;;
70008;SDS011;59542;37.950;-122.338;2023-04-25T02:35:01;14.60;;;4.60;;
70008;SDS011;59542;37.950;-122.338;2023-04-25T02:37:31;15.32;;;5.13;;
70008;SDS011;59542;37.950;-122.338;2023-04-25T02:39:59;19.10;;;4.25;;
70008;SDS011;59542;37.950;-122.338;2023-04-25T02:42:25;12.65;;;5.47;;
70008;SDS011;59542;37.950;-122.338;2023-04-25T02:44:53;16.55;;;7.15;;
70008;SDS011;59542;37.950;-122.338;2023-04-25T02:47:19;18.77;;;5.50;;
70008;SDS011;59542;37.950;-122.338;2023-04-25T02:49:46;28.48;;;5.18;;
70008;SDS011;59542;37.950;-122.338;2023-04-25T02:52:12;14.85;;;5.30;;
70008;SDS011;59542;37.950;-122.338;2023-04-25T02:54:39;21.80;;;5.53;;
70008;SDS011;59542;37.950;-122.338;2023-04-25T02:57:05;14.00;;;4.75;;
70008;SDS011;59542;37.950;-122.338;2023-04-25T02:59:33;17.48;;;5.45;;
70008;SDS011;59542;37.950;-122.338;2023-04-25T03:01:59;19.13;;;4.32;;
70008;SDS011;59542;37.950;-122.338;2023-04-25T03:04:26;18.90;;;5.30;;
70008;SDS011;59542;37.950;-122.338;2023-04-25T03:06:52;14.13;;;4.93;;
70008;SDS011;59542;37.950;-122.338;2023-04-25T03:09:19;15.27;;;4.22;;
70008;SDS011;59542;37.950;-122.338;2023-04-25T03:11:45;19.00;;;5.07;;
70008;SDS011;59542;37.950;-122.338;2023-04-25T03:14:12;17.90;;;4.20;;
70008;SDS011;59542;37.950;-122.338;2023-04-25T03:16:38;13.75;;;5.03;;
70008;SDS011;59542;37.950;-122.338;2023-04-25T03:19:05;17.35;;;4.75;;
70008;SDS011;59542;37.950;-122.338;2023-04-25T03:21:32;16.17;;;4.63;;
70008;SDS011;59542;37.950;-122.338;2023-04-25T03:24:00;21.65;;;4.47;;
70008;SDS011;59542;37.950;-122.338;2023-04-25T03:26:28;20.05;;;5.30;;
70008;SDS011;59542;37.950;-122.338;2023-04-25T03:28:54;14.00;;;4.22;;
70008;SDS011;59542;37.950;-122.338;2023-04-25T03:31:20;18.88;;;5.32;;
70008;SDS011;59542;37.950;-122.338;2023-04-25T03:33:47;24.40;;;5.30;;
70008;SDS011;59542;37.950;-122.338;2023-04-25T03:36:14;15.25;;;4.93;;
70008;SDS011;59542;37.950;-122.338;2023-04-25T03:38:40;16.63;;;4.85;;
70008;SDS011;59542;37.950;-122.338;2023-04-25T03:41:09;15.00;;;4.38;;
70008;SDS011;59542;37.950;-122.338;2023-04-25T03:43:35;14.48;;;4.20;;
70008;SDS011;59542;37.950;-122.338;2023-04-25T03:46:01;19.73;;;4.50;;
70008;SDS011;59542;37.950;-122.338;2023-04-25T03:48:28;19.40;;;4.63;;
70008;SDS011;59542;37.950;-122.338;2023-04-25T03:50:54;24.05;;;5.45;;
70008;SDS011;59542;37.950;-122.338;2023-04-25T03:53:20;18.02;;;4.68;;
70008;SDS011;59542;37.950;-122.338;2023-04-25T03:55:47;16.63;;;4.78;;
70008;SDS011;59542;37.950;-122.338;2023-04-25T03:58:13;16.45;;;5.18;;
70008;SDS011;59542;37.950;-122.338;2023-04-25T04:00:39;26.15;;;5.25;;
70008;SDS011;59542;37.950;-122.338;2023-04-25T04:03:06;18.75;;;4.70;;
70008;SDS011;59542;37.950;-122.338;2023-04-25T04:05:32;19.88;;;4.90;;
70008;SDS011;59542;37.950;-122.338;2023-04-25T04:07:58;21.50;;;5.60;;
70008;SDS011;59542;37.950;-122.338;2023-04-25T04:10:24;19.30;;;4.85;;
70008;SDS011;59542;37.950;-122.338;2023-04-25T04:12:51;20.25;;;5.15;;
70008;SDS011;59542;37.950;-122.338;2023-04-25T04:15:17;22.08;;;4.90;;
70008;SDS011;59542;37.950;-122.338;2023-04-25T04:17:43;19.75;;;4.82;;
70008;SDS011;59542;37.950;-122.338;2023-04-25T04:20:10;18.67;;;4.63;;
70008;SDS011;59542;37.950;-122.338;2023-04-25T04:22:36;21.92;;;5.35;;
70008;SDS011;59542;37.950;-122.338;2023-04-25T04:25:03;24.17;;;5.28;;
70008;SDS011;59542;37.950;-122.338;2023-04-25T04:27:31;17.20;;;5.65;;
70008;SDS011;59542;37.950;-122.338;2023-04-25T04:29:57;21.20;;;5.03;;
70008;SDS011;59542;37.950;-122.338;2023-04-25T04:32:23;22.38;;;5.07;;
70008;SDS011;59542;37.950;-122.338;2023-04-25T04:34:50;22.35;;;5.32;;
70008;SDS011;59542;37.950;-122.338;2023-04-25T04:37:17;24.38;;;6.13;;
70008;SDS011;59542;37.950;-122.338;2023-04-25T04:39:44;26.90;;;5.60;;
70008;SDS011;59542;37.950;-122.338;2023-04-25T04:42:10;17.38;;;5.38;;
70008;SDS011;59542;37.950;-122.338;2023-04-25T04:44:36;25.58;;;5.35;;
70008;SDS011;59542;37.950;-122.338;2023-04-25T04:47:04;25.63;;;6.07;;
70008;SDS011;59542;37.950;-122.338;2023-04-25T04:49:32;20.50;;;5.80;;
70008;SDS011;59542;37.950;-122.338;2023-04-25T04:51:58;27.20;;;5.80;;
70008;SDS011;59542;37.950;-122.338;2023-04-25T04:54:25;20.42;;;6.20;;
70008;SDS011;59542;37.950;-122.338;2023-04-25T04:56:52;19.17;;;5.68;;
70008;SDS011;59542;37.950;-122.338;2023-04-25T04:59:18;25.42;;;6.55;;
70008;SDS011;59542;37.950;-122.338;2023-04-25T05:01:44;21.60;;;5.53;;
70008;SDS011;59542;37.950;-122.338;2023-04-25T05:04:12;20.40;;;5.78;;
70008;SDS011;59542;37.950;-122.338;2023-04-25T05:06:38;22.45;;;5.57;;
70008;SDS011;59542;37.950;-122.338;2023-04-25T05:09:04;18.55;;;5.57;;
70008;SDS011;59542;37.950;-122.338;2023-04-25T05:11:31;23.25;;;5.78;;
70008;SDS011;59542;37.950;-122.338;2023-04-25T05:13:58;21.15;;;5.82;;
70008;SDS011;59542;37.950;-122.338;2023-04-25T05:16:24;31.20;;;5.85;;
70008;SDS011;59542;37.950;-122.338;2023-04-25T05:18:51;25.52;;;5.32;;
70008;SDS011;59542;37.950;-122.338;2023-04-25T05:21:18;22.98;;;5.70;;
70008;SDS011;59542;37.950;-122.338;2023-04-25T05:23:44;21.17;;;5.70;;
70008;SDS011;59542;37.950;-122.338;2023-04-25T05:26:10;25.02;;;4.90;;
70008;SDS011;59542;37.950;-122.338;2023-04-25T05:28:41;23.77;;;5.47;;
70008;SDS011;59542;37.950;-122.338;2023-04-25T05:31:09;20.10;;;5.70;;
70008;SDS011;59542;37.950;-122.338;2023-04-25T05:33:36;28.88;;;5.80;;
70008;SDS011;59542;37.950;-122.338;2023-04-25T05:36:03;26.77;;;5.68;;
70008;SDS011;59542;37.950;-122.338;2023-04-25T05:38:29;22.58;;;5.20;;
70008;SDS011;59542;37.950;-122.338;2023-04-25T05:40:56;21.60;;;5.50;;
70008;SDS011;59542;37.950;-122.338;2023-04-25T05:43:22;32.78;;;5.50;;
70008;SDS011;59542;37.950;-122.338;2023-04-25T05:45:49;23.85;;;6.40;;
70008;SDS011;59542;37.950;-122.338;2023-04-25T05:48:15;32.22;;;6.43;;
70008;SDS011;59542;37.950;-122.338;2023-04-25T05:50:41;31.58;;;6.60;;
70008;SDS011;59542;37.950;-122.338;2023-04-25T05:53:08;24.25;;;6.10;;
70008;SDS011;59542;37.950;-122.338;2023-04-25T05:55:34;27.90;;;6.38;;
70008;SDS011;59542;37.950;-122.338;2023-04-25T05:58:00;29.25;;;6.55;;
70008;SDS011;59542;37.950;-122.338;2023-04-25T06:00:27;24.35;;;6.63;;
70008;SDS011;59542;37.950;-122.338;2023-04-25T06:02:53;28.60;;;6.60;;
70008;SDS011;59542;37.950;-122.338;2023-04-25T06:05:20;24.65;;;6.18;;
70008;SDS011;59542;37.950;-122.338;2023-04-25T06:07:46;28.50;;;7.40;;
70008;SDS011;59542;37.950;-122.338;2023-04-25T06:10:12;30.00;;;6.20;;
70008;SDS011;59542;37.950;-122.338;2023-04-25T06:12:38;30.02;;;6.38;;
70008;SDS011;59542;37.950;-122.338;2023-04-25T06:15:05;24.38;;;5.65;;
70008;SDS011;59542;37.950;-122.338;2023-04-25T06:17:32;30.23;;;6.25;;
70008;SDS011;59542;37.950;-122.338;2023-04-25T06:19:59;24.98;;;5.57;;
70008;SDS011;59542;37.950;-122.338;2023-04-25T06:22:25;21.75;;;5.68;;
70008;SDS011;59542;37.950;-122.338;2023-04-25T06:24:51;27.75;;;6.07;;
70008;SDS011;59542;37.950;-122.338;2023-04-25T06:27:17;24.48;;;5.38;;
70008;SDS011;59542;37.950;-122.338;2023-04-25T06:29:43;26.70;;;5.63;;
70008;SDS011;59542;37.950;-122.338;2023-04-25T06:32:10;30.35;;;6.80;;
70008;SDS011;59542;37.950;-122.338;2023-04-25T06:34:36;28.38;;;7.43;;
70008;SDS011;59542;37.950;-122.338;2023-04-25T06:37:02;30.85;;;7.05;;
70008;SDS011;59542;37.950;-122.338;2023-04-25T06:39:28;27.05;;;5.95;;
70008;SDS011;59542;37.950;-122.338;2023-04-25T06:41:55;32.97;;;7.47;;
70008;SDS011;59542;37.950;-122.338;2023-04-25T06:44:21;25.60;;;6.60;;
70008;SDS011;59542;37.950;-122.338;2023-04-25T06:46:49;25.48;;;5.97;;
70008;SDS011;59542;37.950;-122.338;2023-04-25T06:49:15;29.40;;;6.45;;
70008;SDS011;59542;37.950;-122.338;2023-04-25T06:51:41;18.50;;;5.80;;
70008;SDS011;59542;37.950;-122.338;2023-04-25T06:54:07;33.42;;;6.82;;
70008;SDS011;59542;37.950;-122.338;2023-04-25T06:56:34;28.30;;;5.65;;
70008;SDS011;59542;37.950;-122.338;2023-04-25T06:59:00;20.17;;;6.07;;
70008;SDS011;59542;37.950;-122.338;2023-04-25T07:01:26;29.75;;;6.85;;
70008;SDS011;59542;37.950;-122.338;2023-04-25T07:03:52;30.83;;;6.80;;
70008;SDS011;59542;37.950;-122.338;2023-04-25T07:06:19;22.27;;;6.22;;
70008;SDS011;59542;37.950;-122.338;2023-04-25T07:08:45;28.60;;;6.63;;
70008;SDS011;59542;37.950;-122.338;2023-04-25T07:11:11;23.98;;;5.88;;
70008;SDS011;59542;37.950;-122.338;2023-04-25T07:13:37;23.33;;;6.18;;
70008;SDS011;59542;37.950;-122.338;2023-04-25T07:16:04;26.70;;;5.65;;
70008;SDS011;59542;37.950;-122.338;2023-04-25T07:18:30;29.38;;;6.50;;
70008;SDS011;59542;37.950;-122.338;2023-04-25T07:20:56;26.38;;;6.13;;
70008;SDS011;59542;37.950;-122.338;2023-04-25T07:23:23;24.20;;;6.07;;
70008;SDS011;59542;37.950;-122.338;2023-04-25T07:25:49;23.95;;;6.55;;
70008;SDS011;59542;37.950;-122.338;2023-04-25T07:28:15;22.95;;;6.60;;
70008;SDS011;59542;37.950;-122.338;2023-04-25T07:30:41;33.67;;;6.03;;
70008;SDS011;59542;37.950;-122.338;2023-04-25T07:33:08;25.25;;;6.60;;
70008;SDS011;59542;37.950;-122.338;2023-04-25T07:35:34;26.15;;;6.28;;
70008;SDS011;59542;37.950;-122.338;2023-04-25T07:38:01;28.50;;;6.97;;
70008;SDS011;59542;37.950;-122.338;2023-04-25T07:40:28;24.27;;;6.32;;
70008;SDS011;59542;37.950;-122.338;2023-04-25T07:42:55;22.50;;;5.93;;
70008;SDS011;59542;37.950;-122.338;2023-04-25T07:45:21;24.35;;;5.45;;
70008;SDS011;59542;37.950;-122.338;2023-04-25T07:47:48;24.67;;;6.35;;
70008;SDS011;59542;37.950;-122.338;2023-04-25T07:50:15;25.40;;;6.20;;
70008;SDS011;59542;37.950;-122.338;2023-04-25T07:52:41;18.40;;;4.68;;
70008;SDS011;59542;37.950;-122.338;2023-04-25T07:55:07;26.02;;;5.82;;
70008;SDS011;59542;37.950;-122.338;2023-04-25T07:57:34;27.30;;;6.00;;
70008;SDS011;59542;37.950;-122.338;2023-04-25T08:00:00;26.30;;;5.60;;
70008;SDS011;59542;37.950;-122.338;2023-04-25T08:02:27;26.20;;;6.40;;
70008;SDS011;59542;37.950;-122.338;2023-04-25T08:04:53;21.15;;;5.40;;
70008;SDS011;59542;37.950;-122.338;2023-04-25T08:07:40;20.60;;;5.90;;
70008;SDS011;59542;37.950;-122.338;2023-04-25T08:10:07;29.83;;;6.63;;
70008;SDS011;59542;37.950;-122.338;2023-04-25T08:12:33;28.45;;;5.93;;
70008;SDS011;59542;37.950;-122.338;2023-04-25T08:14:59;28.73;;;6.25;;
70008;SDS011;59542;37.950;-122.338;2023-04-25T08:17:26;27.10;;;5.75;;
70008;SDS011;59542;37.950;-122.338;2023-04-25T08:19:52;28.17;;;6.22;;
70008;SDS011;59542;37.950;-122.338;2023-04-25T08:22:19;18.17;;;4.93;;
70008;SDS011;59542;37.950;-122.338;2023-04-25T08:24:45;22.58;;;6.03;;
70008;SDS011;59542;37.950;-122.338;2023-04-25T08:27:11;22.83;;;6.10;;
70008;SDS011;59542;37.950;-122.338;2023-04-25T08:29:37;26.92;;;5.88;;
70008;SDS011;59542;37.950;-122.338;2023-04-25T08:32:04;28.73;;;5.85;;
70008;SDS011;59542;37.950;-122.338;2023-04-25T08:34:30;27.90;;;6.15;;
70008;SDS011;59542;37.950;-122.338;2023-04-25T08:36:56;31.52;;;7.47;;
70008;SDS011;59542;37.950;-122.338;2023-04-25T08:39:22;26.13;;;5.85;;
70008;SDS011;59542;37.950;-122.338;2023-04-25T08:41:49;30.85;;;5.97;;
70008;SDS011;59542;37.950;-122.338;2023-04-25T08:44:16;19.13;;;5.72;;
70008;SDS011;59542;37.950;-122.338;2023-04-25T08:46:44;20.65;;;5.70;;
70008;SDS011;59542;37.950;-122.338;2023-04-25T08:49:15;27.63;;;6.95;;
70008;SDS011;59542;37.950;-122.338;2023-04-25T08:51:44;33.17;;;6.43;;
70008;SDS011;59542;37.950;-122.338;2023-04-25T08:54:13;23.30;;;6.47;;
70008;SDS011;59542;37.950;-122.338;2023-04-25T08:56:40;22.40;;;6.07;;
70008;SDS011;59542;37.950;-122.338;2023-04-25T08:59:10;28.63;;;6.93;;
70008;SDS011;59542;37.950;-122.338;2023-04-25T09:01:39;21.50;;;5.70;;
70008;SDS011;59542;37.950;-122.338;2023-04-25T09:04:06;28.55;;;6.72;;
70008;SDS011;59542;37.950;-122.338;2023-04-25T09:06:32;29.38;;;6.90;;
70008;SDS011;59542;37.950;-122.338;2023-04-25T09:09:06;27.63;;;6.15;;
70008;SDS011;59542;37.950;-122.338;2023-04-25T09:11:34;27.20;;;6.30;;
70008;SDS011;59542;37.950;-122.338;2023-04-25T09:19:36;26.02;;;6.30;;
70008;SDS011;59542;37.950;-122.338;2023-04-25T09:22:05;30.67;;;7.15;;
70008;SDS011;59542;37.950;-122.338;2023-04-25T09:24:39;32.88;;;6.97;;
70008;SDS011;59542;37.950;-122.338;2023-04-25T09:27:12;29.75;;;6.55;;
70008;SDS011;59542;37.950;-122.338;2023-04-25T09:29:43;26.15;;;6.03;;
70008;SDS011;59542;37.950;-122.338;2023-04-25T09:32:20;32.22;;;7.10;;
70008;SDS011;59542;37.950;-122.338;2023-04-25T09:34:47;22.35;;;5.70;;
70008;SDS011;59542;37.950;-122.338;2023-04-25T09:37:37;29.88;;;6.60;;
70008;SDS011;59542;37.950;-122.338;2023-04-25T09:40:06;27.83;;;6.25;;
70008;SDS011;59542;37.950;-122.338;2023-04-25T09:42:33;26.05;;;6.32;;
70008;SDS011;59542;37.950;-122.338;2023-04-25T09:45:00;34.03;;;8.05;;
70008;SDS011;59542;37.950;-122.338;2023-04-25T09:47:27;20.13;;;5.60;;
70008;SDS011;59542;37.950;-122.338;2023-04-25T09:49:54;31.67;;;6.18;;
70008;SDS011;59542;37.950;-122.338;2023-04-25T09:52:41;31.98;;;6.90;;
70008;SDS011;59542;37.950;-122.338;2023-04-25T09:55:08;29.42;;;5.97;;
70008;SDS011;59542;37.950;-122.338;2023-04-25T09:57:34;29.40;;;6.28;;
70008;SDS011;59542;37.950;-122.338;2023-04-25T10:00:05;29.98;;;5.78;;
70008;SDS011;59542;37.950;-122.338;2023-04-25T10:02:36;29.08;;;6.40;;
70008;SDS011;59542;37.950;-122.338;2023-04-25T10:05:07;27.42;;;7.18;;
70008;SDS011;59542;37.950;-122.338;2023-04-25T10:07:34;32.40;;;6.70;;
70008;SDS011;59542;37.950;-122.338;2023-04-25T10:10:03;29.80;;;7.72;;
70008;SDS011;59542;37.950;-122.338;2023-04-25T10:12:32;28.08;;;6.22;;
70008;SDS011;59542;37.950;-122.338;2023-04-25T10:14:59;30.63;;;6.95;;
70008;SDS011;59542;37.950;-122.338;2023-04-25T10:17:26;35.78;;;7.60;;
70008;SDS011;59542;37.950;-122.338;2023-04-25T10:19:55;28.52;;;6.63;;
70008;SDS011;59542;37.950;-122.338;2023-04-25T10:22:35;33.40;;;6.85;;
70008;SDS011;59542;37.950;-122.338;2023-04-25T10:25:03;30.90;;;6.90;;
70008;SDS011;59542;37.950;-122.338;2023-04-25T10:27:31;23.13;;;6.70;;
70008;SDS011;59542;37.950;-122.338;2023-04-25T10:32:31;33.95;;;6.20;;
70008;SDS011;59542;37.950;-122.338;2023-04-25T10:35:09;29.33;;;6.13;;
70008;SDS011;59542;37.950;-122.338;2023-04-25T10:40:24;38.40;;;7.18;;
70008;SDS011;59542;37.950;-122.338;2023-04-25T10:42:54;28.75;;;6.90;;
70008;SDS011;59542;37.950;-122.338;2023-04-25T10:45:21;27.17;;;6.03;;
70008;SDS011;59542;37.950;-122.338;2023-04-25T10:47:48;24.65;;;5.63;;
70008;SDS011;59542;37.950;-122.338;2023-04-25T10:50:14;25.23;;;5.75;;
70008;SDS011;59542;37.950;-122.338;2023-04-25T10:52:41;17.85;;;5.63;;
70008;SDS011;59542;37.950;-122.338;2023-04-25T10:55:09;28.02;;;6.57;;
70008;SDS011;59542;37.950;-122.338;2023-04-25T11:00:15;32.42;;;6.78;;
70008;SDS011;59542;37.950;-122.338;2023-04-25T11:02:43;29.38;;;6.43;;
70008;SDS011;59542;37.950;-122.338;2023-04-25T11:05:23;23.50;;;6.53;;
70008;SDS011;59542;37.950;-122.338;2023-04-25T11:08:01;25.45;;;6.55;;
70008;SDS011;59542;37.950;-122.338;2023-04-25T11:10:30;28.42;;;6.60;;
70008;SDS011;59542;37.950;-122.338;2023-04-25T11:13:00;23.08;;;5.55;;
70008;SDS011;59542;37.950;-122.338;2023-04-25T11:15:27;31.02;;;6.45;;
70008;SDS011;59542;37.950;-122.338;2023-04-25T11:17:54;27.67;;;6.10;;
70008;SDS011;59542;37.950;-122.338;2023-04-25T11:20:21;21.45;;;6.30;;
70008;SDS011;59542;37.950;-122.338;2023-04-25T11:22:48;24.52;;;6.28;;
70008;SDS011;59542;37.950;-122.338;2023-04-25T11:25:15;29.95;;;5.97;;
70008;SDS011;59542;37.950;-122.338;2023-04-25T11:27:51;23.20;;;5.22;;
70008;SDS011;59542;37.950;-122.338;2023-04-25T11:30:19;26.02;;;5.90;;
70008;SDS011;59542;37.950;-122.338;2023-04-25T11:32:46;25.92;;;5.80;;
70008;SDS011;59542;37.950;-122.338;2023-04-25T11:35:13;26.08;;;5.95;;
70008;SDS011;59542;37.950;-122.338;2023-04-25T11:37:40;27.10;;;5.78;;
70008;SDS011;59542;37.950;-122.338;2023-04-25T11:40:07;23.50;;;5.93;;
70008;SDS011;59542;37.950;-122.338;2023-04-25T11:42:38;24.10;;;5.90;;
70008;SDS011;59542;37.950;-122.338;2023-04-25T11:45:05;20.15;;;4.85;;
70008;SDS011;59542;37.950;-122.338;2023-04-25T11:47:33;21.83;;;5.22;;
70008;SDS011;59542;37.950;-122.338;2023-04-25T11:50:00;25.92;;;6.55;;
70008;SDS011;59542;37.950;-122.338;2023-04-25T11:52:38;18.92;;;4.78;;
70008;SDS011;59542;37.950;-122.338;2023-04-25T11:55:18;20.30;;;5.40;;
70008;SDS011;59542;37.950;-122.338;2023-04-25T11:57:46;27.88;;;6.47;;
70008;SDS011;59542;37.950;-122.338;2023-04-25T12:00:16;25.90;;;5.00;;
70008;SDS011;59542;37.950;-122.338;2023-04-25T12:02:52;21.52;;;5.53;;
70008;SDS011;59542;37.950;-122.338;2023-04-25T12:05:19;21.92;;;5.15;;
70008;SDS011;59542;37.950;-122.338;2023-04-25T12:07:49;24.08;;;6.25;;
70008;SDS011;59542;37.950;-122.338;2023-04-25T12:10:16;20.92;;;5.82;;
70008;SDS011;59542;37.950;-122.338;2023-04-25T12:12:47;27.83;;;6.75;;
70008;SDS011;59542;37.950;-122.338;2023-04-25T12:15:17;21.17;;;5.03;;
70008;SDS011;59542;37.950;-122.338;2023-04-25T12:17:49;29.63;;;6.13;;
70008;SDS011;59542;37.950;-122.338;2023-04-25T12:20:21;19.63;;;4.85;;
70008;SDS011;59542;37.950;-122.338;2023-04-25T12:22:50;31.88;;;6.00;;
70008;SDS011;59542;37.950;-122.338;2023-04-25T12:25:34;22.83;;;5.60;;
70008;SDS011;59542;37.950;-122.338;2023-04-25T12:35:49;21.02;;;4.95;;
70008;SDS011;59542;37.950;-122.338;2023-04-25T12:40:51;22.40;;;5.20;;
70008;SDS011;59542;37.950;-122.338;2023-04-25T12:43:18;17.67;;;5.88;;
70008;SDS011;59542;37.950;-122.338;2023-04-25T12:45:47;24.15;;;5.50;;
70008;SDS011;59542;37.950;-122.338;2023-04-25T12:48:20;20.75;;;5.35;;
70008;SDS011;59542;37.950;-122.338;2023-04-25T12:50:47;20.25;;;5.45;;
70008;SDS011;59542;37.950;-122.338;2023-04-25T12:53:21;13.38;;;3.80;;
70008;SDS011;59542;37.950;-122.338;2023-04-25T12:55:49;18.80;;;5.43;;
70008;SDS011;59542;37.950;-122.338;2023-04-25T12:58:16;17.88;;;5.18;;
70008;SDS011;59542;37.950;-122.338;2023-04-25T13:00:44;25.75;;;6.10;;
70008;SDS011;59542;37.950;-122.338;2023-04-25T13:03:11;23.90;;;5.22;;
70008;SDS011;59542;37.950;-122.338;2023-04-25T13:05:38;28.85;;;6.18;;
70008;SDS011;59542;37.950;-122.338;2023-04-25T13:08:05;23.73;;;5.65;;
70008;SDS011;59542;37.950;-122.338;2023-04-25T13:10:31;25.90;;;5.68;;
70008;SDS011;59542;37.950;-122.338;2023-04-25T13:12:59;23.02;;;5.57;;
70008;SDS011;59542;37.950;-122.338;2023-04-25T13:15:26;15.95;;;4.82;;
70008;SDS011;59542;37.950;-122.338;2023-04-25T13:17:52;26.52;;;5.45;;
70008;SDS011;59542;37.950;-122.338;2023-04-25T13:20:19;31.73;;;6.57;;
70008;SDS011;59542;37.950;-122.338;2023-04-25T13:22:47;28.50;;;5.80;;
70008;SDS011;59542;37.950;-122.338;2023-04-25T13:25:13;22.63;;;5.65;;
70008;SDS011;59542;37.950;-122.338;2023-04-25T13:27:40;21.92;;;6.15;;
70008;SDS011;59542;37.950;-122.338;2023-04-25T13:30:06;17.63;;;5.53;;
70008;SDS011;59542;37.950;-122.338;2023-04-25T13:32:34;19.15;;;5.15;;
70008;SDS011;59542;37.950;-122.338;2023-04-25T13:35:08;20.77;;;4.93;;
70008;SDS011;59542;37.950;-122.338;2023-04-25T13:37:35;18.10;;;4.85;;
70008;SDS011;59542;37.950;-122.338;2023-04-25T13:40:02;15.55;;;4.20;;
70008;SDS011;59542;37.950;-122.338;2023-04-25T13:42:31;14.98;;;4.65;;
70008;SDS011;59542;37.950;-122.338;2023-04-25T13:44:58;16.25;;;4.50;;
70008;SDS011;59542;37.950;-122.338;2023-04-25T13:47:25;16.08;;;4.63;;
70008;SDS011;59542;37.950;-122.338;2023-04-25T13:49:52;23.10;;;5.18;;
70008;SDS011;59542;37.950;-122.338;2023-04-25T13:52:18;17.80;;;5.10;;
70008;SDS011;59542;37.950;-122.338;2023-04-25T13:54:44;20.67;;;5.10;;
70008;SDS011;59542;37.950;-122.338;2023-04-25T13:57:11;13.65;;;5.03;;
70008;SDS011;59542;37.950;-122.338;2023-04-25T13:59:37;13.85;;;4.70;;
70008;SDS011;59542;37.950;-122.338;2023-04-25T14:02:04;17.17;;;4.38;;
70008;SDS011;59542;37.950;-122.338;2023-04-25T14:04:30;15.82;;;4.97;;
70008;SDS011;59542;37.950;-122.338;2023-04-25T14:06:58;23.35;;;4.78;;
70008;SDS011;59542;37.950;-122.338;2023-04-25T14:09:27;14.60;;;4.95;;
70008;SDS011;59542;37.950;-122.338;2023-04-25T14:11:54;18.75;;;4.80;;
70008;SDS011;59542;37.950;-122.338;2023-04-25T14:14:21;19.35;;;4.88;;
70008;SDS011;59542;37.950;-122.338;2023-04-25T14:16:48;16.52;;;4.47;;
70008;SDS011;59542;37.950;-122.338;2023-04-25T14:19:16;15.23;;;4.82;;
70008;SDS011;59542;37.950;-122.338;2023-04-25T14:21:43;11.05;;;4.50;;